Terminal Aerodrome Forecast
Issued by NWS Upton, NY

Home | Current Version | Previous Version | Text Only | Print | Product List | Glossary On
Versions: 1 2 3 4 5 6 7 8 9 10 11 12 13 14 15 16 17 18 19 20 21 22 23 24 25 26 27 28 29 30 31 32 33 34 35
000
FTUS41 KOKX 231530 AAB
TAFJFK
TAF AMD
KJFK 231530Z 2316/2418 31010KT P6SM SCT100 BKN250
     FM231800 28010KT P6SM SCT250
     FM232100 25012KT P6SM SCT250
     FM240100 31008KT P6SM SKC
     FM240600 35008KT P6SM SKC=

USA.gov is the U.S. government's official web portal to all federal, state and local government web resources and services.